Time;durP1;ratioP1;P1;durP2;ratioP2;P2;SDS_P1;SDS_P2;PMS_P1;PMS_P2;Temp;Humidity;BMP_temperature;BMP_pressure;BME280_temperature;BME280_humidity;BME280_pressure;Samples;Min_cycle;Max_cycle;Signal;HPM_P1;HPM_P2
2022/07/25 00:01:10;;;;;;;5.18;1.80;;;;;;;17.23;74.71;99752.34;7398267;19;20015;-54
2022/07/25 00:07:03;;;;;;;14.90;2.40;;;;;;;17.20;75.23;99760.75;7396319;19;20018;-51
2022/07/25 00:09:31;;;;;;;5.10;1.83;;;;;;;17.17;75.01;99754.00;7396698;19;20026;-52
2022/07/25 00:11:58;;;;;;;4.43;1.98;;;;;;;17.19;74.93;99762.75;7397802;19;20015;-51
2022/07/25 00:14:26;;;;;;;7.40;2.08;;;;;;;17.14;75.32;99766.00;7396142;19;20043;-49
2022/07/25 00:16:53;;;;;;;6.25;2.50;;;;;;;17.10;75.03;99765.25;7399782;19;20015;-53
2022/07/25 00:19:20;;;;;;;5.75;2.13;;;;;;;17.05;75.35;99771.25;7400242;19;20011;-50
2022/07/25 00:21:48;;;;;;;3.25;2.13;;;;;;;17.06;75.44;99770.06;7397651;19;20014;-50
2022/07/25 00:24:16;;;;;;;4.93;2.22;;;;;;;17.09;75.87;99777.63;7399096;19;20022;-51
2022/07/25 00:30:08;;;;;;;8.00;3.25;;;;;;;17.12;75.45;99778.81;7396988;19;20010;-52
2022/07/25 00:32:36;;;;;;;4.10;2.50;;;;;;;17.10;75.83;99770.84;7398716;19;20022;-52
2022/07/25 00:35:04;;;;;;;10.35;2.40;;;;;;;17.12;75.70;99781.59;7399487;19;20074;-49
2022/07/25 00:37:32;;;;;;;6.80;2.58;;;;;;;17.09;76.08;99783.22;7396461;19;20042;-49
2022/07/25 00:39:59;;;;;;;6.28;2.38;;;;;;;17.07;75.94;99782.06;7396005;19;20053;-49
2022/07/25 00:42:27;;;;;;;8.98;4.45;;;;;;;17.09;75.88;99786.03;7397187;19;20428;-52
2022/07/25 00:44:55;;;;;;;5.18;2.40;;;;;;;17.11;75.79;99794.78;7396461;19;20014;-51
2022/07/25 00:47:22;;;;;;;8.73;3.05;;;;;;;17.09;76.16;99791.63;7397162;19;20543;-50
2022/07/25 00:49:50;;;;;;;9.48;2.63;;;;;;;17.07;76.29;99788.44;7396884;19;20047;-51
2022/07/25 00:52:18;;;;;;;8.27;2.10;;;;;;;17.10;76.53;99798.81;7398782;19;20014;-51
2022/07/25 00:54:49;;;;;;;6.03;2.63;;;;;;;17.11;76.30;99788.41;7393887;19;20473;-51
2022/07/25 01:01:08;;;;;;;4.35;2.50;;;;;;;17.11;76.76;99794.78;7396974;19;20018;-50
2022/07/25 01:03:35;;;;;;;5.13;2.72;;;;;;;17.16;76.40;99790.75;7395197;19;20021;-49
2022/07/25 01:06:03;;;;;;;6.13;1.83;;;;;;;17.19;76.09;99796.31;7399747;19;20033;-50
2022/07/25 01:08:31;;;;;;;5.03;2.22;;;;;;;17.18;76.18;99793.94;7397130;19;20043;-53
2022/07/25 01:10:59;;;;;;;3.97;2.33;;;;;;;17.19;76.03;99784.34;7398993;19;20017;-50
2022/07/25 01:13:26;;;;;;;4.65;2.17;;;;;;;17.18;76.23;99794.75;7392175;19;20397;-53
2022/07/25 01:15:54;;;;;;;11.48;2.88;;;;;;;17.16;76.09;99785.16;7396440;19;20021;-49
2022/07/25 01:18:21;;;;;;;6.57;2.58;;;;;;;17.14;76.18;99805.16;7397042;19;20035;-49
2022/07/25 01:20:49;;;;;;;13.07;2.97;;;;;;;17.06;76.46;99792.44;7397681;19;20030;-51
2022/07/25 01:23:37;;;;;;;8.40;2.47;;;;;;;17.00;76.67;99797.66;7397812;19;20078;-50
2022/07/25 01:26:07;;;;;;;4.78;2.33;;;;;;;16.99;76.92;99801.69;7398365;19;20030;-49
2022/07/25 01:28:35;;;;;;;8.32;2.45;;;;;;;16.92;77.38;99798.94;7397010;19;20030;-50
2022/07/25 01:31:03;;;;;;;8.73;2.65;;;;;;;16.91;77.22;99791.78;7394552;19;20015;-50
2022/07/25 01:43:25;;;;;;;6.18;2.45;;;;;;;16.81;76.75;99803.03;7394036;19;20337;-51
2022/07/25 01:49:18;;;;;;;4.10;2.00;;;;;;;16.81;76.80;99817.00;7393819;19;20018;-54
2022/07/25 01:51:46;;;;;;;8.20;2.28;;;;;;;16.75;77.57;99807.44;7393766;19;20018;-54
2022/07/25 01:54:14;;;;;;;5.60;2.60;;;;;;;16.77;77.49;99819.00;7396077;19;20011;-54
2022/07/25 01:56:45;;;;;;;11.35;2.38;;;;;;;16.74;78.09;99817.03;7395591;19;20470;-51
2022/07/25 01:59:15;;;;;;;5.75;2.83;;;;;;;16.73;77.91;99819.03;7396357;19;20010;-55
2022/07/25 02:01:43;;;;;;;4.20;2.38;;;;;;;16.70;78.03;99814.28;7396501;19;20011;-51
2022/07/25 02:04:10;;;;;;;9.02;2.72;;;;;;;16.67;78.39;99805.91;7392808;19;20010;-53
2022/07/25 02:06:40;;;;;;;8.68;2.55;;;;;;;16.67;78.21;99815.09;7398062;19;20011;-53
2022/07/25 02:09:09;;;;;;;9.25;3.25;;;;;;;16.66;78.29;99813.50;7397857;19;20006;-50
2022/07/25 02:15:49;;;;;;;5.80;2.05;;;;;;;16.59;78.67;99812.75;7394104;19;20014;-50
2022/07/25 02:18:36;;;;;;;4.32;2.33;;;;;;;16.60;78.32;99814.34;7398468;19;20015;-51
2022/07/25 02:21:24;;;;;;;5.68;2.10;;;;;;;16.58;78.49;99819.53;7395245;19;20018;-49
2022/07/25 02:24:12;;;;;;;5.03;2.25;;;;;;;16.59;79.02;99829.50;7395877;19;19998;-53
2022/07/25 02:27:00;;;;;;;5.22;2.65;;;;;;;16.60;78.79;99831.09;7395722;19;20492;-54
2022/07/25 02:29:48;;;;;;;7.13;2.33;;;;;;;16.60;78.87;99831.09;7393253;19;20015;-51
2022/07/25 02:36:41;;;;;;;4.65;2.45;;;;;;;16.56;79.33;99833.13;7395013;19;20015;-51
2022/07/25 02:39:29;;;;;;;2.50;2.03;;;;;;;16.56;79.69;99831.13;7395934;19;20034;-52
2022/07/25 02:42:16;;;;;;;4.75;2.30;;;;;;;16.58;79.75;99828.72;7401774;19;20354;-51
2022/07/25 02:44:44;;;;;;;4.70;2.08;;;;;;;16.59;80.00;99837.88;7401816;19;20476;-53
2022/07/25 02:47:11;;;;;;;7.88;2.72;;;;;;;16.58;79.83;99844.66;7404717;19;20082;-52
2022/07/25 02:49:39;;;;;;;4.82;2.15;;;;;;;16.55;80.23;99845.50;7401113;19;20047;-54
2022/07/25 02:52:06;;;;;;;5.47;2.45;;;;;;;16.54;80.51;99839.13;7403493;19;20125;-50
2022/07/25 02:54:34;;;;;;;3.17;1.90;;;;;;;16.54;80.84;99847.50;7396746;19;20014;-50
2022/07/25 02:57:01;;;;;;;4.47;2.40;;;;;;;16.53;80.69;99853.47;7403142;19;20182;-52
2022/07/25 03:00:24;;;;;;;4.43;2.20;;;;;;;16.46;81.37;99840.31;7398199;19;20022;-51
2022/07/25 03:06:23;;;;;;;4.28;2.22;;;;;;;16.50;80.81;99840.28;7398805;19;20038;-51
2022/07/25 03:09:11;;;;;;;5.20;2.47;;;;;;;16.52;81.18;99837.91;7399808;19;20352;-49
2022/07/25 03:11:58;;;;;;;5.05;3.00;;;;;;;16.53;81.16;99842.31;7402203;19;20037;-53
2022/07/25 03:14:46;;;;;;;2.90;1.92;;;;;;;16.52;80.96;99827.50;7399199;19;20010;-50
2022/07/25 03:17:34;;;;;;;4.53;2.05;;;;;;;16.53;81.39;99825.53;7404549;19;20011;-50
2022/07/25 03:20:22;;;;;;;5.32;2.47;;;;;;;16.48;81.62;99837.13;7401044;19;20344;-52
2022/07/25 03:23:10;;;;;;;5.03;2.25;;;;;;;16.44;81.66;99835.13;7401974;19;20017;-49
2022/07/25 03:25:58;;;;;;;4.93;2.10;;;;;;;16.40;82.14;99839.94;7401800;19;20010;-53
2022/07/25 03:28:46;;;;;;;4.10;2.88;;;;;;;16.41;82.26;99841.53;7402224;19;20006;-51
2022/07/25 03:31:33;;;;;;;4.97;2.20;;;;;;;16.44;82.34;99840.72;7398455;19;20006;-52
2022/07/25 03:34:21;;;;;;;5.40;1.80;;;;;;;16.43;82.29;99841.94;7398525;19;20029;-49
2022/07/25 03:37:09;;;;;;;6.57;2.10;;;;;;;16.48;81.87;99842.69;7403433;19;20010;-53
2022/07/25 03:39:57;;;;;;;4.60;1.92;;;;;;;16.48;82.16;99848.28;7399984;19;20007;-50
2022/07/25 03:42:45;;;;;;;4.80;2.17;;;;;;;16.49;82.24;99847.91;7402320;19;20329;-50
2022/07/25 03:45:32;;;;;;;4.05;1.98;;;;;;;16.49;81.83;99853.50;7397645;19;20022;-50
2022/07/25 03:48:20;;;;;;;4.60;2.28;;;;;;;16.53;81.59;99861.88;7401903;19;20349;-49
2022/07/25 03:51:08;;;;;;;5.72;2.10;;;;;;;16.51;81.82;99861.44;7399549;19;20337;-49
2022/07/25 03:54:02;;;;;;;7.47;1.98;;;;;;;16.49;82.24;99866.66;7399743;19;20014;-49
2022/07/25 03:56:50;;;;;;;4.60;2.35;;;;;;;16.52;81.75;99858.25;7400550;19;20028;-50
2022/07/25 03:59:39;;;;;;;3.80;1.83;;;;;;;16.55;81.84;99871.44;7399004;19;20019;-50
2022/07/25 04:02:27;;;;;;;2.40;1.95;;;;;;;16.61;82.02;99867.03;7398269;19;20017;-50
2022/07/25 04:05:15;;;;;;;3.88;2.10;;;;;;;16.55;82.08;99879.03;7397547;19;20021;-51
2022/07/25 04:08:03;;;;;;;2.60;1.50;;;;;;;16.55;81.59;99868.63;7397803;19;20006;-52
2022/07/25 04:10:51;;;;;;;7.15;2.92;;;;;;;16.56;81.71;99875.03;7400819;19;20347;-51
2022/07/25 04:13:38;;;;;;;1.90;1.50;;;;;;;16.54;81.78;99885.81;7400450;19;20021;-51
2022/07/25 04:16:26;;;;;;;2.83;1.70;;;;;;;16.52;81.64;99882.63;7398386;19;20329;-52
2022/07/25 04:19:14;;;;;;;5.30;1.70;;;;;;;16.51;81.95;99889.41;7398041;19;20023;-52
2022/07/25 04:22:03;;;;;;;5.20;1.80;;;;;;;16.50;81.88;99893.38;7400677;19;20014;-51
2022/07/25 04:24:51;;;;;;;4.60;1.88;;;;;;;16.42;82.12;99890.63;7398581;19;20006;-50
2022/07/25 04:27:39;;;;;;;3.60;1.50;;;;;;;16.47;82.23;99905.38;7399227;19;20006;-51
2022/07/25 04:30:27;;;;;;;4.70;1.38;;;;;;;16.39;82.60;99893.41;7399273;19;20015;-51
2022/07/25 04:33:14;;;;;;;1.75;1.45;;;;;;;16.36;82.78;99905.44;7400902;19;20021;-54
2022/07/25 04:36:03;;;;;;;5.90;1.40;;;;;;;16.37;82.45;99905.00;7400496;19;20011;-50
2022/07/25 04:38:51;;;;;;;3.60;1.85;;;;;;;16.36;82.83;99911.78;7399128;19;20348;-51
2022/07/25 04:41:39;;;;;;;4.55;1.58;;;;;;;16.34;82.98;99905.81;7398228;19;20011;-50
2022/07/25 04:44:27;;;;;;;3.20;1.30;;;;;;;16.29;83.33;99899.84;7397426;19;20011;-50
2022/07/25 04:47:14;;;;;;;4.57;1.20;;;;;;;16.31;83.57;99901.03;7398997;19;20014;-53
2022/07/25 04:50:02;;;;;;;2.50;1.30;;;;;;;16.33;82.96;99904.25;7397735;19;20015;-53
2022/07/25 04:52:50;;;;;;;2.90;1.45;;;;;;;16.30;82.89;99902.25;7398724;19;20141;-52
2022/07/25 04:55:39;;;;;;;5.65;2.08;;;;;;;16.28;82.97;99904.63;7394256;19;20479;-50
2022/07/25 04:58:27;;;;;;;1.92;1.23;;;;;;;16.26;82.98;99906.25;7392178;19;20006;-55
2022/07/25 05:04:54;;;;;;;3.53;1.40;;;;;;;16.19;83.26;99932.19;7392855;19;20010;-55
2022/07/25 05:11:23;;;;;;;3.85;1.50;;;;;;;16.19;83.35;99935.00;7397272;19;20344;-51
2022/07/25 05:14:12;;;;;;;2.58;1.55;;;;;;;16.23;83.25;99935.78;7395522;19;20015;-53
2022/07/25 05:17:00;;;;;;;2.70;1.10;;;;;;;16.32;82.84;99932.56;7397603;19;20010;-52
2022/07/25 05:19:48;;;;;;;4.57;1.35;;;;;;;16.35;83.01;99937.34;7396408;19;20002;-54
2022/07/25 05:22:35;;;;;;;3.33;1.70;;;;;;;16.35;82.67;99949.31;7396797;19;20007;-50
2022/07/25 05:25:24;;;;;;;4.28;1.23;;;;;;;16.37;82.82;99944.13;7396395;19;20011;-55
2022/07/25 05:28:13;;;;;;;6.30;1.70;;;;;;;16.40;82.98;99948.91;7398143;19;20007;-49
2022/07/25 05:31:01;;;;;;;1.75;1.20;;;;;;;16.50;83.05;99954.84;7397060;19;19999;-52
2022/07/25 05:33:49;;;;;;;2.90;1.17;;;;;;;16.58;83.04;99962.03;7395909;19;20098;-50
2022/07/25 05:36:37;;;;;;;2.05;1.17;;;;;;;16.57;82.64;99960.47;7397243;19;20033;-52
2022/07/25 05:39:24;;;;;;;1.08;0.70;;;;;;;16.55;82.99;99958.06;7394380;19;20048;-53
2022/07/25 05:42:13;;;;;;;3.15;1.17;;;;;;;16.59;82.95;99958.88;7397097;19;20049;-54
2022/07/25 05:45:01;;;;;;;1.35;1.05;;;;;;;16.59;82.76;99967.25;7395010;19;20342;-52
2022/07/25 05:47:49;;;;;;;1.55;0.73;;;;;;;16.64;82.64;99971.63;7395891;19;20010;-53
2022/07/25 05:50:36;;;;;;;1.17;1.05;;;;;;;16.66;81.82;99980.38;7395727;19;20013;-51
2022/07/25 05:53:24;;;;;;;1.48;0.73;;;;;;;16.63;81.79;99993.16;7396973;19;20476;-52
2022/07/25 06:00:14;;;;;;;2.58;0.70;;;;;;;16.60;80.80;100004.38;7393905;19;20011;-51
2022/07/25 06:02:48;;;;;;;1.20;0.80;;;;;;;16.59;80.49;100020.34;7395964;19;20047;-51
2022/07/25 06:05:15;;;;;;;2.15;0.68;;;;;;;16.56;80.28;100023.94;7394940;19;20015;-55
2022/07/25 06:07:43;;;;;;;1.83;0.63;;;;;;;16.57;79.68;100033.13;7394322;19;20007;-54
2022/07/25 06:10:11;;;;;;;4.07;0.82;;;;;;;16.45;79.07;100037.91;7395460;19;20051;-53
2022/07/25 06:20:40;;;;;;;2.10;0.55;;;;;;;16.53;77.97;100044.31;7403073;19;20010;-52
2022/07/25 06:27:21;;;;;;;1.50;0.50;;;;;;;16.55;77.09;100057.88;7403985;19;20031;-51
2022/07/25 06:38:12;;;;;;;1.40;0.40;;;;;;;16.89;75.89;100079.34;7402981;19;20468;-53
2022/07/25 06:41:00;;;;;;;1.58;0.60;;;;;;;16.97;76.02;100088.53;7400042;19;20015;-51
2022/07/25 06:47:27;;;;;;;1.65;0.47;;;;;;;16.79;74.78;100084.97;7399858;19;20468;-54
2022/07/25 06:57:33;;;;;;;4.10;0.68;;;;;;;16.58;75.64;100110.16;7404755;19;20003;-55
2022/07/25 07:00:21;;;;;;;7.60;0.70;;;;;;;16.63;75.80;100112.53;7403185;19;20445;-51
2022/07/25 07:03:09;;;;;;;2.58;0.80;;;;;;;16.68;75.79;100106.56;7403301;19;20025;-52
2022/07/25 07:05:57;;;;;;;4.50;0.70;;;;;;;16.70;75.35;100118.16;7405662;19;20453;-49
2022/07/25 07:08:45;;;;;;;1.17;0.50;;;;;;;16.73;75.25;100114.56;7402402;19;20007;-52
2022/07/25 07:22:20;;;;;;;3.40;0.25;;;;;;;16.98;74.28;100132.88;7396640;19;20090;-52
2022/07/25 07:28:54;;;;;;;0.73;0.10;;;;;;;17.33;73.82;100140.34;7403825;19;20074;-52
2022/07/25 07:31:42;;;;;;;0.95;0.10;;;;;;;17.45;72.92;100151.09;7394465;19;20025;-50
2022/07/25 07:38:17;;;;;;;1.85;0.28;;;;;;;17.59;71.89;100165.06;7402694;19;20011;-50
2022/07/25 07:41:04;;;;;;;1.80;0.10;;;;;;;17.46;71.65;100161.09;7401316;19;20018;-53
2022/07/25 07:43:52;;;;;;;1.30;0.15;;;;;;;17.48;71.82;100164.28;7401729;19;20480;-51
2022/07/25 07:46:40;;;;;;;1.08;0.20;;;;;;;17.55;71.36;100178.25;7401061;19;20010;-55
2022/07/25 07:49:28;;;;;;;0.50;0.20;;;;;;;17.51;71.03;100166.25;7399292;19;20014;-53
2022/07/25 07:52:23;;;;;;;1.55;0.15;;;;;;;17.56;70.90;100182.66;7402285;19;20011;-54
2022/07/25 07:58:18;;;;;;;2.03;0.20;;;;;;;17.64;70.39;100187.03;7403554;19;20010;-50
2022/07/25 08:01:06;;;;;;;2.70;0.40;;;;;;;17.69;69.72;100193.41;7397915;19;20329;-54
2022/07/25 08:10:57;;;;;;;1.55;0.30;;;;;;;17.82;69.28;100211.38;7397849;19;20476;-55
2022/07/25 08:13:45;;;;;;;2.28;0.30;;;;;;;17.68;69.55;100220.63;7400707;19;20014;-51
2022/07/25 08:24:15;;;;;;;0.98;0.32;;;;;;;17.37;70.43;100238.25;7400382;19;20011;-55
2022/07/25 08:27:02;;;;;;;1.40;0.30;;;;;;;17.51;70.27;100239.03;7395968;19;20007;-55
2022/07/25 08:29:51;;;;;;;2.05;0.47;;;;;;;17.63;69.96;100241.41;7393151;19;20007;-54
2022/07/25 08:36:05;;;;;;;4.78;0.50;;;;;;;17.85;69.93;100249.75;7395277;19;20362;-51
2022/07/25 08:38:34;;;;;;;3.08;0.30;;;;;;;17.79;69.63;100265.38;7398874;19;20209;-54
2022/07/25 08:41:03;;;;;;;1.05;0.20;;;;;;;17.73;69.91;100262.19;7397670;19;20021;-54
2022/07/25 08:43:31;;;;;;;2.72;0.30;;;;;;;17.72;70.08;100269.00;7398564;19;20022;-51
2022/07/25 08:46:00;;;;;;;1.95;0.47;;;;;;;17.74;69.65;100266.56;7397195;19;20014;-56
2022/07/25 08:49:05;;;;;;;0.57;0.32;;;;;;;17.68;69.64;100282.22;7394757;19;20014;-54
2022/07/25 08:54:59;;;;;;;0.20;0.20;;;;;;;17.51;69.65;100289.41;7397348;19;20023;-55
2022/07/25 09:01:40;;;;;;;1.27;0.30;;;;;;;17.49;69.89;100305.03;7393748;19;20077;-52
2022/07/25 09:08:41;;;;;;;2.03;0.35;;;;;;;17.43;70.09;100310.22;7398769;19;20345;-53
2022/07/25 09:14:42;;;;;;;1.15;0.30;;;;;;;17.46;70.17;100320.63;7393297;19;20010;-50
2022/07/25 09:21:21;;;;;;;0.98;0.65;;;;;;;17.70;69.72;100332.19;7395382;19;20023;-54
2022/07/25 09:24:15;;;;;;;1.23;0.20;;;;;;;17.84;69.67;100340.56;7397119;19;20484;-51
2022/07/25 09:27:09;;;;;;;5.38;0.63;;;;;;;17.80;69.60;100348.16;7398252;19;20023;-52
2022/07/25 09:29:59;;;;;;;1.50;0.30;;;;;;;17.88;69.78;100347.75;7396877;19;20361;-54
2022/07/25 09:36:58;;;;;;;2.70;0.32;;;;;;;17.99;69.30;100365.34;7397729;19;20007;-53
2022/07/25 09:50:24;;;;;;;4.25;1.15;;;;;;;17.97;68.51;100395.75;7402248;19;20116;-55
2022/07/25 09:53:15;;;;;;;2.53;0.75;;;;;;;18.12;68.49;100405.72;7401159;19;20494;-54
2022/07/25 09:56:03;;;;;;;0.30;0.30;;;;;;;18.26;68.37;100407.69;7404362;19;20018;-54
2022/07/25 09:58:51;;;;;;;0.65;0.32;;;;;;;18.50;68.29;100406.84;7405668;19;20022;-51
2022/07/25 10:01:50;;;;;;;0.20;0.10;;;;;;;18.80;66.94;100407.06;7398952;19;20844;-51
2022/07/25 10:12:03;;;;;;;1.38;0.57;;;;;;;20.27;63.68;100416.75;7397868;19;20086;-49
2022/07/25 10:14:32;;;;;;;0.22;0.00;;;;;;;21.05;63.81;100434.19;7403441;19;20069;-53
2022/07/25 10:17:20;;;;;;;1.23;0.25;;;;;;;21.61;62.51;100443.03;7403508;19;20028;-52
2022/07/25 10:20:09;;;;;;;0.43;0.10;;;;;;;21.46;61.74;100444.50;7405583;19;20011;-52
2022/07/25 10:22:57;;;;;;;0.82;0.80;;;;;;;20.94;61.13;100447.63;7404675;19;20419;-51
2022/07/25 10:25:45;;;;;;;1.20;0.15;;;;;;;20.53;61.04;100470.25;7401758;19;20066;-54
2022/07/25 10:28:40;;;;;;;1.88;0.20;;;;;;;20.13;61.00;100475.88;7403226;19;20023;-55
2022/07/25 10:35:26;;;;;;;1.10;0.10;;;;;;;19.90;61.67;100480.13;7401450;19;20042;-52
2022/07/25 10:41:25;;;;;;;1.85;0.20;;;;;;;20.15;61.97;100476.28;7398113;19;20010;-48
2022/07/25 10:43:56;;;;;;;0.80;0.10;;;;;;;20.62;60.85;100478.22;7404197;19;20018;-49
2022/07/25 10:46:26;;;;;;;1.27;0.10;;;;;;;20.83;59.72;100480.75;7398845;19;20014;-48
2022/07/25 10:49:03;;;;;;;0.68;0.10;;;;;;;20.77;58.40;100485.25;7405076;19;20043;-51
2022/07/25 10:51:33;;;;;;;2.25;0.10;;;;;;;20.71;59.69;100486.91;7402357;19;20023;-51
2022/07/25 10:54:17;;;;;;;0.10;0.10;;;;;;;20.46;59.35;100509.72;7403884;19;20017;-53
2022/07/25 10:56:56;;;;;;;1.83;0.30;;;;;;;20.29;59.04;100513.50;7400813;19;20024;-52
2022/07/25 10:59:27;;;;;;;0.47;0.20;;;;;;;20.20;59.53;100512.38;7400776;19;20006;-48
2022/07/25 11:02:17;;;;;;;1.55;0.17;;;;;;;20.29;59.70;100516.31;7405046;19;20010;-49
2022/07/25 11:05:05;;;;;;;1.58;0.25;;;;;;;20.49;59.59;100524.97;7402081;19;20011;-50
2022/07/25 11:07:53;;;;;;;0.47;0.17;;;;;;;20.49;58.81;100524.97;7400384;19;20353;-50
2022/07/25 11:11:02;;;;;;;0.40;0.20;;;;;;;20.37;58.77;100539.53;7400883;19;20015;-48
2022/07/25 11:14:02;;;;;;;0.75;0.25;;;;;;;20.13;57.86;100537.72;7401145;19;20306;-51
2022/07/25 11:20:16;;;;;;;3.20;0.20;;;;;;;20.05;58.75;100557.47;7399798;19;20009;-50
2022/07/25 11:23:04;;;;;;;0.28;0.20;;;;;;;20.33;58.13;100552.84;7399518;19;20010;-52
2022/07/25 11:26:02;;;;;;;1.35;0.15;;;;;;;20.47;58.20;100561.13;7400994;19;20021;-48
2022/07/25 11:28:50;;;;;;;4.85;0.30;;;;;;;20.35;57.86;100584.94;7400465;19;20112;-50
2022/07/25 11:31:21;;;;;;;0.75;0.20;;;;;;;20.18;57.33;100585.06;7398188;19;20049;-53
2022/07/25 11:33:49;;;;;;;2.47;0.50;;;;;;;19.99;57.90;100595.63;7403034;19;20010;-52
2022/07/25 11:36:17;;;;;;;2.33;0.20;;;;;;;19.85;57.77;100592.94;7399484;19;20011;-54
2022/07/25 11:38:47;;;;;;;2.33;0.50;;;;;;;19.82;57.50;100605.00;7402090;19;20041;-51
2022/07/25 11:41:15;;;;;;;2.60;0.28;;;;;;;19.77;57.34;100610.25;7396588;19;20022;-50
2022/07/25 11:47:29;;;;;;;0.98;0.20;;;;;;;20.12;57.30;100606.41;7398775;19;20007;-50
2022/07/25 11:50:00;;;;;;;0.73;0.47;;;;;;;20.35;57.14;100609.44;7398881;19;20341;-49
2022/07/25 11:52:30;;;;;;;0.50;0.20;;;;;;;20.59;56.82;100602.81;7398762;19;20021;-53
2022/07/25 12:02:41;;;;;;;2.22;0.45;;;;;;;20.65;54.86;100624.44;7399865;19;20014;-50
2022/07/25 12:05:11;;;;;;;6.72;4.50;;;;;;;20.51;56.56;100630.22;7395961;19;20018;-48
2022/07/25 12:12:19;;;;;;;0.63;0.20;;;;;;;20.47;55.48;100635.03;7395801;19;20010;-49
2022/07/25 12:22:08;;;;;;;2.72;1.33;;;;;;;21.09;55.29;100648.13;7396574;19;20073;-51
2022/07/25 12:41:26;;;;;;;1.02;0.22;;;;;;;20.64;56.12;100673.47;7394562;19;20011;-50
2022/07/25 12:44:13;;;;;;;4.25;0.40;;;;;;;20.98;55.99;100673.56;7396359;19;20018;-47
2022/07/25 12:47:01;;;;;;;5.95;2.22;;;;;;;20.87;55.49;100681.31;7399569;19;20006;-47
2022/07/25 12:50:34;;;;;;;2.08;0.57;;;;;;;20.87;55.12;100686.94;7393775;19;20007;-48
2022/07/25 12:53:01;;;;;;;;;;;;;;;21.00;53.86;100692.84;7401283;19;20052;-50
2022/07/25 12:59:21;;;;;;;3.15;0.88;;;;;;;21.37;54.99;100689.25;7397280;19;20486;-46
2022/07/25 13:05:55;;;;;;;3.72;1.20;;;;;;;21.87;53.69;100687.44;7396529;19;20014;-47
2022/07/25 13:08:43;;;;;;;1.30;0.60;;;;;;;21.86;52.50;100702.75;7398458;19;20090;-53
2022/07/25 13:11:31;;;;;;;2.25;0.43;;;;;;;21.77;52.52;100705.25;7399911;19;20010;-48
2022/07/25 13:14:19;;;;;;;0.95;0.43;;;;;;;21.72;51.80;100702.91;7395990;19;20014;-50
2022/07/25 13:20:08;;;;;;;0.90;0.30;;;;;;;21.65;51.37;100706.63;7392432;19;20015;-50
2022/07/25 13:25:59;;;;;;;1.50;0.32;;;;;;;21.79;50.65;100720.53;7395429;19;20014;-48
2022/07/25 13:31:51;;;;;;;1.33;0.22;;;;;;;21.49;50.23;100739.44;7390866;19;20314;-49
2022/07/25 13:34:19;;;;;;;5.93;4.60;;;;;;;21.51;50.39;100742.63;7395348;19;20015;-48
2022/07/25 13:37:03;;;;;;;3.72;0.68;;;;;;;21.84;49.25;100741.81;7389057;19;20015;-50
2022/07/25 13:50:43;;;;;;;1.02;0.60;;;;;;;22.95;48.21;100737.75;7392971;19;20015;-47
2022/07/25 14:03:38;;;;;;;1.67;0.45;;;;;;;23.55;46.68;100761.31;7394944;19;20500;-48
2022/07/25 14:06:09;;;;;;;2.42;0.35;;;;;;;23.81;45.83;100753.94;7394695;19;20034;-48
2022/07/25 14:08:40;;;;;;;4.25;0.40;;;;;;;23.76;45.31;100762.94;7396649;19;20017;-47
2022/07/25 14:11:09;;;;;;;1.23;0.32;;;;;;;23.63;45.05;100763.59;7397135;19;20039;-50
2022/07/25 14:13:36;;;;;;;2.95;0.50;;;;;;;23.69;45.00;100777.22;7396336;19;20038;-52
2022/07/25 14:16:05;;;;;;;0.47;0.10;;;;;;;23.97;44.79;100773.81;7395340;19;20490;-48
2022/07/25 14:22:18;;;;;;;1.67;0.30;;;;;;;24.23;44.38;100784.19;7397895;19;20030;-48
2022/07/25 14:28:57;;;;;;;1.17;0.73;;;;;;;23.90;43.95;100794.56;7396899;19;20010;-49
2022/07/25 14:34:51;;;;;;;2.67;0.95;;;;;;;23.61;44.84;100805.63;7397734;19;19921;-56
2022/07/25 14:37:39;;;;;;;1.73;0.57;;;;;;;23.51;44.21;100817.13;7398486;19;20391;-53
2022/07/25 14:40:27;;;;;;;2.50;0.80;;;;;;;23.27;44.18;100813.47;7402749;19;20122;-52
2022/07/25 14:51:34;;;;;;;0.60;0.30;;;;;;;24.10;41.46;100803.06;7405212;19;20003;-49
2022/07/25 14:54:12;;;;;;;0.75;0.55;;;;;;;24.17;42.94;100817.06;7402405;19;20017;-48
2022/07/25 14:56:40;;;;;;;2.88;0.65;;;;;;;24.24;42.45;100819.75;7397341;19;20022;-48
2022/07/25 14:59:09;;;;;;;3.08;0.60;;;;;;;24.50;42.14;100827.25;7404217;19;20007;-49
2022/07/25 15:01:38;;;;;;;2.10;0.45;;;;;;;24.49;41.78;100822.81;7402523;19;20015;-50
2022/07/25 15:04:06;;;;;;;3.00;0.85;;;;;;;24.61;41.78;100821.34;7402705;19;20010;-51
2022/07/25 15:09:58;;;;;;;2.22;0.77;;;;;;;24.63;41.49;100830.97;7397627;19;20475;-47
2022/07/25 15:19:44;;;;;;;2.00;0.65;;;;;;;24.08;42.25;100839.44;7399225;19;20015;-49
2022/07/25 15:25:37;;;;;;;10.30;2.55;;;;;;;23.83;42.27;100858.94;7400188;19;20015;-49
2022/07/25 15:28:26;;;;;;;3.17;0.55;;;;;;;23.70;41.67;100864.41;7402256;19;20010;-48
2022/07/25 15:31:09;;;;;;;2.28;0.50;;;;;;;23.60;41.31;100871.88;7403426;19;20007;-47
2022/07/25 15:33:37;;;;;;;2.00;0.45;;;;;;;23.56;41.72;100873.16;7400269;19;20476;-48
2022/07/25 15:40:00;;;;;;;0.90;0.60;;;;;;;23.54;41.61;100878.44;7401040;19;20008;-47
2022/07/25 15:42:48;;;;;;;0.95;0.40;;;;;;;23.71;42.58;100891.47;7395478;19;20473;-45
2022/07/25 15:49:42;;;;;;;2.85;0.60;;;;;;;24.62;39.63;100886.00;7401360;19;20078;-49
2022/07/25 15:52:10;;;;;;;0.85;0.38;;;;;;;24.58;40.53;100885.28;7398871;19;20030;-46
2022/07/25 15:58:16;;;;;;;3.03;0.65;;;;;;;23.69;40.79;100895.94;7399776;19;20003;-49
2022/07/25 16:14:30;;;;;;;1.50;0.40;;;;;;;23.16;41.42;100914.56;7400473;19;20020;-48
2022/07/25 16:20:36;;;;;;;3.55;1.00;;;;;;;22.45;42.03;100935.25;7395043;19;20038;-48
2022/07/25 16:26:34;;;;;;;3.03;0.40;;;;;;;22.30;42.44;100942.28;7397869;19;20014;-52
2022/07/25 16:29:04;;;;;;;1.77;0.60;;;;;;;22.25;42.47;100954.03;7398738;19;20397;-51
2022/07/25 16:31:31;;;;;;;1.95;0.55;;;;;;;22.18;42.78;100953.31;7398949;19;20010;-50
2022/07/25 16:33:59;;;;;;;2.22;0.47;;;;;;;22.11;42.72;100948.53;7399465;19;20015;-48
2022/07/25 16:36:28;;;;;;;3.75;0.55;;;;;;;22.11;42.75;100957.00;7399176;19;20006;-52
2022/07/25 16:38:56;;;;;;;2.90;0.52;;;;;;;22.33;42.86;100949.09;7400756;19;20029;-48
2022/07/25 16:41:23;;;;;;;1.55;0.50;;;;;;;22.50;42.90;100950.13;7401208;19;20082;-48
2022/07/25 16:47:28;;;;;;;2.22;0.50;;;;;;;22.16;43.39;100970.63;7399489;19;20002;-48
2022/07/25 17:03:47;;;;;;;3.33;0.57;;;;;;;22.07;43.49;100976.00;7392450;19;20037;-50
2022/07/25 17:10:10;;;;;;;3.72;2.20;;;;;;;21.98;43.57;100980.50;7397944;19;20014;-47
2022/07/25 17:19:41;;;;;;;3.17;1.85;;;;;;;22.06;44.72;100996.94;7395952;19;20010;-46
2022/07/25 17:22:30;;;;;;;2.67;1.40;;;;;;;21.99;44.52;101005.47;7399175;19;20035;-47
2022/07/25 17:25:17;;;;;;;2.17;0.98;;;;;;;21.69;45.41;101013.72;7396832;19;20029;-49
2022/07/25 17:28:06;;;;;;;2.58;0.70;;;;;;;21.54;45.84;101018.69;7400216;19;20011;-47
2022/07/25 17:30:54;;;;;;;3.55;1.40;;;;;;;21.44;45.61;101027.22;7399538;19;20466;-47
2022/07/25 17:33:42;;;;;;;5.90;0.90;;;;;;;21.27;46.25;101028.09;7396821;19;20017;-49
2022/07/25 17:40:22;;;;;;;1.52;0.60;;;;;;;20.79;46.84;101048.41;7397876;19;20006;-49
2022/07/25 17:42:49;;;;;;;2.88;1.13;;;;;;;20.59;47.37;101052.91;7392223;19;20324;-57
2022/07/25 17:46:01;;;;;;;1.92;1.17;;;;;;;20.60;47.63;101055.28;7397294;19;20039;-58
2022/07/25 17:48:35;;;;;;;4.38;1.63;;;;;;;20.56;47.68;101064.97;7397435;19;20014;-58
2022/07/25 17:54:39;;;;;;;1.85;1.02;;;;;;;20.48;48.59;101081.06;7393805;19;20359;-57
2022/07/25 18:03:56;;;;;;;3.33;1.45;;;;;;;20.83;48.05;101087.81;7393763;19;20375;-61
2022/07/25 18:10:12;;;;;;;6.85;1.80;;;;;;;20.94;48.61;101094.97;7402461;19;20039;-59
2022/07/25 18:12:39;;;;;;;9.50;4.63;;;;;;;20.92;48.81;101111.47;7404555;19;20021;-58
2022/07/25 18:22:09;;;;;;;3.63;1.00;;;;;;;20.46;49.82;101116.41;7400142;19;20015;-58
2022/07/25 18:27:45;;;;;;;3.88;1.23;;;;;;;20.31;50.12;101117.63;7403434;19;20010;-57
2022/07/25 18:30:15;;;;;;;3.08;0.88;;;;;;;20.07;50.54;101115.59;7399331;19;20046;-56
2022/07/25 18:32:44;;;;;;;3.38;1.00;;;;;;;20.15;50.18;101117.22;7403882;19;20037;-57
2022/07/25 18:35:12;;;;;;;5.70;1.02;;;;;;;20.22;50.16;101123.63;7394315;19;20030;-59
2022/07/25 18:37:39;;;;;;;4.72;1.45;;;;;;;20.22;49.87;101125.63;7401577;19;20026;-57